Latest Coastal Weather Observations for Portland Harbour

IDV60701

Issued at 4:35 pm EST Tuesday 29 July 2014 (issued every 10 minutes, with the page automatically refreshed every 10 minutes)

About coastal observations | Map of coastal stations | Coastal observations for VIC | Marine services | Other Formats
Station Details ID: 090192 Name: PORTLAND NTC AWS Lat: -38.34 Lon: 141.61 Height: 0.0 m
Data from the previous 72 hours. | See also: Recent months for locations in Victoria
Date/Time
EST
Temp

°C
Wind Pressure Rain
since 9am
mm
Weather Cloud Vis
km
Sea
Height
m
Swell
Dir
 
Speed
knots
Gust
knots
hPa Trend Height
m
Period
s
Dir
29/04:30pm 15.0 WNW 22 35 1005.1 - - - - - - - - -
29/04:00pm 14.8 W 17 30 1005.1 - - - - - - - - -
29/03:30pm 14.1 WNW 26 39 1004.9 - - - - - - - - -
29/03:00pm 15.9 WNW 22 33 1004.4 - - - - - - - - -
29/02:30pm 15.7 WNW 26 37 1004.0 - - - - - - - - -
29/02:00pm 15.9 WNW 24 37 1004.0 - - - - - - - - -
29/01:30pm 15.9 WNW 25 44 1003.6 - - - - - - - - -
29/01:00pm 16.0 WNW 25 37 1003.9 - - - - - - - - -
29/12:30pm 15.4 WNW 25 36 1004.3 - - - - - - - - -
29/12:00pm 15.2 WNW 27 38 1004.8 - - - - - - - - -
29/11:30am 15.7 WNW 24 41 1004.8 - - - - - - - - -
29/11:00am 15.5 WNW 22 36 1004.8 - - - - - - - - -
29/10:30am 14.5 WNW 25 35 1004.9 - - - - - - - - -
29/10:00am 15.5 WNW 23 36 1004.8 - - - - - - - - -
29/09:30am 15.2 WNW 22 33 1004.5 - - - - - - - - -
29/09:00am 15.0 NW 19 31 1004.5 - - - - - - - - -
29/08:30am 14.4 NW 18 29 1004.4 - - - - - - - - -
29/08:00am 14.5 WNW 18 29 1004.6 - - - - - - - - -
29/07:30am 14.2 WNW 19 32 1004.8 - - - - - - - - -
29/07:26am 14.0 WNW 15 26 1005.0 - - - - - - - - -
29/07:00am 14.1 NW 17 26 1004.8 - - - - - - - - -
29/06:30am 14.3 NW 16 27 1004.5 - - - - - - - - -
29/06:07am 13.9 NW 17 27 1004.6 - - - - - - - - -
29/06:00am 13.8 NW 17 26 1004.7 - - - - - - - - -
29/05:30am 13.9 NW 16 28 1004.4 - - - - - - - - -
29/05:08am 13.7 NW 20 31 1004.6 - - - - - - - - -
29/05:00am 13.6 NNW 21 31 1004.3 - - - - - - - - -
29/04:35am 13.2 NW 17 27 1004.4 - - - - - - - - -
29/04:30am 13.3 NW 18 27 1004.5 - - - - - - - - -
29/04:00am 13.5 NW 17 27 1004.6 - - - - - - - - -
29/03:39am 14.0 NW 20 31 1004.6 - - - - - - - - -
29/03:30am 14.0 NW 19 27 1004.6 - - - - - - - - -
29/03:00am 14.1 NW 19 30 1005.0 - - - - - - - - -
29/02:30am 13.7 NNW 19 32 1005.4 - - - - - - - - -
29/02:14am 13.7 NNW 20 32 1005.4 - - - - - - - - -
29/02:00am 13.6 NNW 20 28 1005.5 - - - - - - - - -
29/01:30am 13.8 NW 19 32 1006.0 - - - - - - - - -
29/01:26am 13.7 NNW 18 32 1006.0 - - - - - - - - -
29/01:00am 13.6 NNW 18 25 1006.6 - - - - - - - - -
29/12:30am 13.3 NNW 18 29 1007.0 - - - - - - - - -
29/12:13am 13.3 NNW 18 30 1007.2 - - - - - - - - -
29/12:00am 13.3 NNW 18 25 1007.5 - - - - - - - - -
 
Date/Time
EST
Temp

°C
Wind Pressure Rain
since 9am
mm
Weather Cloud Vis
km
Sea
Height
m
Swell
Dir
 
Speed
knots
Gust
knots
hPa Trend Height
m
Period
s
Dir
28/11:30pm 13.0 NNW 17 24 1007.9 - - - - - - - - -
28/11:00pm 13.2 NNW 17 23 1008.3 - - - - - - - - -
28/10:30pm 12.9 NNW 16 24 1008.7 - - - - - - - - -
28/10:00pm 12.9 NNW 16 23 1009.1 - - - - - - - - -
28/09:30pm 12.9 NNW 12 17 1009.2 - - - - - - - - -
28/09:00pm 13.2 NNW 17 26 1009.5 - - - - - - - - -
28/08:30pm 13.9 NW 15 23 1009.3 - - - - - - - - -
28/08:00pm 14.0 NNW 15 22 1009.1 - - - - - - - - -
28/07:30pm 14.1 NNW 14 22 1009.1 - - - - - - - - -
28/07:00pm 14.1 NNW 13 20 1009.4 - - - - - - - - -
28/06:30pm 14.5 NNW 15 26 1009.4 - - - - - - - - -
28/06:29pm 14.5 NNW 15 26 1009.4 - - - - - - - - -
28/06:00pm 14.7 NW 12 18 1009.7 - - - - - - - - -
28/05:30pm 15.1 NW 12 18 1009.5 - - - - - - - - -
28/05:00pm 15.5 NW 14 24 1009.2 - - - - - - - - -
28/04:30pm 15.8 NW 16 23 1009.5 - - - - - - - - -
28/04:06pm 16.2 NW 15 25 1009.3 - - - - - - - - -
28/04:00pm 16.1 NW 13 24 1009.4 - - - - - - - - -
28/03:30pm 16.4 NW 16 27 1009.3 - - - - - - - - -
28/03:00pm 16.5 WNW 19 29 1009.6 - - - - - - - - -
28/02:54pm 16.5 WNW 19 29 1009.5 - - - - - - - - -
28/02:30pm 16.1 NW 18 28 1009.8 - - - - - - - - -
28/02:00pm 15.8 NW 17 24 1010.2 - - - - - - - - -
28/01:30pm 15.5 NW 15 22 1010.5 - - - - - - - - -
28/01:01pm 15.3 NW 17 28 1010.9 - - - - - - - - -
28/01:00pm 15.4 NW 18 28 1011.0 - - - - - - - - -
28/12:30pm 15.6 NW 18 28 1011.2 - - - - - - - - -
28/12:00pm 15.1 NW 16 27 1011.7 - - - - - - - - -
28/11:47am 15.1 NW 15 25 1011.9 - - - - - - - - -
28/11:30am 14.9 NW 16 24 1012.2 - - - - - - - - -
28/11:00am 14.5 NW 13 22 1012.5 - - - - - - - - -
28/10:30am 13.7 NW 12 19 1012.7 - - - - - - - - -
28/10:00am 13.1 NNW 9 14 1013.0 - - - - - - - - -
28/09:30am 12.0 NNW 8 11 1013.0 - - - - - - - - -
28/09:00am 11.1 NNW 9 14 1013.0 - - - - - - - - -
28/08:30am 10.8 NNW 9 11 1012.9 - - - - - - - - -
28/08:00am 10.3 N 11 13 1012.9 - - - - - - - - -
28/07:30am 10.8 N 10 11 1013.0 - - - - - - - - -
28/07:00am 11.3 NNW 8 10 1013.0 - - - - - - - - -
28/06:30am 11.4 NNW 8 11 1013.0 - - - - - - - - -
28/06:00am 11.4 NNW 7 9 1013.0 - - - - - - - - -
28/05:30am 11.4 NNW 8 11 1013.0 - - - - - - - - -
28/05:00am 11.5 NNW 8 11 1013.1 - - - - - - - - -
28/04:30am 11.7 NNW 9 11 1013.0 - - - - - - - - -
28/04:00am 11.9 NNW 9 12 1013.2 - - - - - - - - -
28/03:30am 12.3 NNW 9 12 1013.5 - - - - - - - - -
28/03:00am 12.4 NNW 10 12 1013.5 - - - - - - - - -
28/02:30am 12.8 NNW 9 15 1013.9 - - - - - - - - -
28/02:00am 12.9 NNW 10 15 1014.0 - - - - - - - - -
28/01:30am 12.8 NNW 12 18 1014.0 - - - - - - - - -
28/01:00am 12.8 NNW 12 16 1014.5 - - - - - - - - -
28/12:30am 13.1 NNW 13 19 1014.7 - - - - - - - - -
28/12:00am 13.4 NNW 12 17 1015.1 - - - - - - - - -
 
Date/Time
EST
Temp

°C
Wind Pressure Rain
since 9am
mm
Weather Cloud Vis
km
Sea
Height
m
Swell
Dir
 
Speed
knots
Gust
knots
hPa Trend Height
m
Period
s
Dir
27/11:30pm 13.6 NW 11 16 1015.3 - - - - - - - - -
27/11:00pm 13.8 NNW 13 19 1015.4 - - - - - - - - -
27/10:30pm 14.0 NNW 14 20 1015.5 - - - - - - - - -
27/10:00pm 14.1 NNW 14 20 1015.6 - - - - - - - - -
27/09:30pm 13.9 NNW 16 21 1015.6 - - - - - - - - -
27/09:00pm 13.5 NNW 16 21 1015.7 - - - - - - - - -
27/08:30pm 13.2 NNW 13 18 1015.9 - - - - - - - - -
27/08:00pm 13.0 NNW 12 16 1015.9 - - - - - - - - -
27/07:30pm 13.3 N 15 18 1015.9 - - - - - - - - -
27/07:00pm 13.8 NNW 16 20 1016.3 - - - - - - - - -
27/06:30pm 14.0 NNW 15 19 1016.4 - - - - - - - - -
27/06:00pm 14.6 NNW 14 21 1016.4 - - - - - - - - -
27/05:30pm 14.8 NNW 14 19 1016.2 - - - - - - - - -
27/05:00pm 15.0 NNW 13 17 1016.1 - - - - - - - - -
27/04:30pm 15.4 NNW 13 17 1016.3 - - - - - - - - -
27/04:00pm 15.4 NNW 13 17 1016.3 - - - - - - - - -
27/03:30pm 15.5 NNW 13 19 1016.7 - - - - - - - - -
27/03:00pm 15.9 NNW 12 18 1016.7 - - - - - - - - -
27/02:30pm 15.8 NNW 13 19 1016.9 - - - - - - - - -
27/02:00pm 15.2 NNW 16 21 1017.1 - - - - - - - - -
27/01:30pm 14.8 NNW 15 21 1017.5 - - - - - - - - -
27/01:00pm 14.3 NNW 15 21 1018.0 - - - - - - - - -
27/12:30pm 14.2 NNW 17 23 1018.5 - - - - - - - - -
27/12:00pm 13.3 N 18 27 1019.1 - - - - - - - - -
27/11:30am 13.0 NNW 16 22 1020.0 - - - - - - - - -
27/11:00am 12.3 NNW 14 21 1020.5 - - - - - - - - -
27/10:30am 11.7 NNW 14 19 1020.8 - - - - - - - - -
27/10:00am 11.2 NNW 11 16 1020.9 - - - - - - - - -
27/09:30am 10.5 NNW 14 17 1020.8 - - - - - - - - -
27/09:00am 9.8 NNW 10 14 1021.5 - - - - - - - - -
27/08:30am 9.4 NNW 12 16 1021.3 - - - - - - - - -
27/08:00am 9.6 N 15 20 1021.2 - - - - - - - - -
27/07:30am 9.2 NNW 13 16 1021.7 - - - - - - - - -
27/07:00am 8.9 NNW 12 15 1021.8 - - - - - - - - -
27/06:30am 8.5 NNW 10 12 1022.0 - - - - - - - - -
27/06:00am 8.6 NNW 9 11 1022.1 - - - - - - - - -
27/05:30am 9.0 NNW 7 10 1022.3 - - - - - - - - -
27/05:00am 8.9 NNW 6 9 1022.3 - - - - - - - - -
27/04:30am 8.9 NNW 8 10 1022.6 - - - - - - - - -
27/04:00am 8.7 NW 5 7 1023.0 - - - - - - - - -
27/03:30am 9.2 NW 7 10 1023.1 - - - - - - - - -
27/03:00am 9.4 NNW 9 11 1023.1 - - - - - - - - -
27/02:30am 9.2 NW 6 8 1023.2 - - - - - - - - -
27/02:00am 9.5 NNW 9 12 1023.4 - - - - - - - - -
27/01:30am 10.0 NNW 9 12 1023.5 - - - - - - - - -
27/01:00am 10.3 NNW 11 13 1023.6 - - - - - - - - -
27/12:30am 10.1 N 8 10 1023.8 - - - - - - - - -
27/12:00am 10.1 NNW 7 10 1024.3 - - - - - - - - -
 
Date/Time
EST
Temp

°C
Wind Pressure Rain
since 9am
mm
Weather Cloud Vis
km
Sea
Height
m
Swell
Dir
 
Speed
knots
Gust
knots
hPa Trend Height
m
Period
s
Dir
26/11:30pm 8.0 SW 3 4 1024.4 - - - - - - - - -
26/11:00pm 8.0 SSW 3 4 1024.7 - - - - - - - - -
26/10:30pm 8.1 WSW 2 3 1024.9 - - - - - - - - -
26/10:00pm 8.6 SW 2 3 1025.0 - - - - - - - - -
26/09:30pm 8.5 S 2 3 1025.0 - - - - - - - - -
26/09:00pm 9.0 SW 2 2 1025.1 - - - - - - - - -
26/08:30pm 9.3 WSW 1 2 1025.1 - - - - - - - - -
26/08:00pm 9.9 SSW 2 3 1024.9 - - - - - - - - -
26/07:30pm 10.5 W 1 2 1024.9 - - - - - - - - -
26/07:00pm 11.2 SSW 1 2 1024.8 - - - - - - - - -
26/06:30pm 11.9 WNW 2 2 1024.7 - - - - - - - - -
26/06:00pm 12.7 WNW 1 2 1024.6 - - - - - - - - -
26/05:30pm 13.4 W 3 5 1024.5 - - - - - - - - -
26/05:00pm 13.9 WSW 5 8 1024.4 - - - - - - - - -

Other Formats:

Comma delimited format used in spreadsheet applications
http://www.bom.gov.au/fwo/IDV60701/IDV60701.95826.axf

JavaScript Object Notation format (JSON) in row-major order
http://www.bom.gov.au/fwo/IDV60701/IDV60701.95826.json